createdAt,value
2023-03-02T00:01:53.188Z,84.13
2023-03-02T00:04:22.036Z,27.13
2023-03-02T00:06:49.735Z,54.27
2023-03-02T00:09:17.298Z,29.77
2023-03-02T00:11:46.291Z,28.85
2023-03-02T00:14:13.435Z,38.45
2023-03-02T00:16:40.884Z,43.05
2023-03-02T00:19:08.071Z,29.67
2023-03-02T00:21:35.199Z,43.42
2023-03-02T00:24:02.384Z,46.65
2023-03-02T00:26:29.605Z,31.73
2023-03-02T00:28:56.802Z,24.73
2023-03-02T00:31:24.045Z,39.40
2023-03-02T00:33:54.225Z,94.03
2023-03-02T00:36:21.506Z,60.53
2023-03-02T00:38:48.714Z,36.97
2023-03-02T00:41:16.180Z,55.28
2023-03-02T00:43:43.346Z,32.83
2023-03-02T00:46:17.431Z,52.38
2023-03-02T00:48:44.819Z,49.78
2023-03-02T00:51:12.119Z,31.63
2023-03-02T00:53:39.260Z,33.92
2023-03-02T00:56:06.722Z,32.40
2023-03-02T00:58:33.879Z,42.83
2023-03-02T01:01:05.104Z,25.65
2023-03-02T01:03:32.371Z,33.80
2023-03-02T01:06:00.763Z,44.80
2023-03-02T01:08:27.991Z,71.80
2023-03-02T01:10:55.205Z,30.95
2023-03-02T01:13:22.465Z,34.25
2023-03-02T01:15:49.720Z,20.42
2023-03-02T01:18:16.972Z,22.95
2023-03-02T01:20:44.174Z,35.38
2023-03-02T01:23:11.561Z,31.48
2023-03-02T01:25:39.705Z,27.87
2023-03-02T01:28:06.913Z,46.38
2023-03-02T01:30:34.203Z,37.33
2023-03-02T01:33:01.364Z,23.08
2023-03-02T01:35:28.580Z,19.73
2023-03-02T01:37:55.811Z,21.90
2023-03-02T01:40:23.062Z,29.45
2023-03-02T01:42:53.601Z,19.73
2023-03-02T01:45:59.501Z,19.50
2023-03-02T01:48:28.240Z,26.97
2023-03-02T01:50:55.526Z,22.83
2023-03-02T01:53:23.020Z,41.15
2023-03-02T01:55:50.171Z,21.10
2023-03-02T01:58:18.131Z,42.30
2023-03-02T02:00:45.641Z,37.63
2023-03-02T02:03:21.128Z,29.63
2023-03-02T02:06:07.318Z,39.17
2023-03-02T02:08:34.531Z,30.92
2023-03-02T02:11:01.852Z,26.48
2023-03-02T02:13:29.312Z,18.05
2023-03-02T02:15:56.456Z,23.50
2023-03-02T02:18:23.584Z,22.95
2023-03-02T02:20:50.782Z,27.30
2023-03-02T02:23:34.399Z,23.45
2023-03-02T02:26:04.626Z,28.50
2023-03-02T02:28:52.125Z,21.80
2023-03-02T02:31:23.505Z,31.55
2023-03-02T02:33:52.079Z,35.55
2023-03-02T02:36:23.772Z,66.20
2023-03-02T02:38:51.303Z,25.13
2023-03-02T02:41:22.261Z,28.02
2023-03-02T02:43:49.662Z,49.08
2023-03-02T02:46:16.858Z,62.37
2023-03-02T02:48:44.118Z,52.97
2023-03-02T02:51:11.691Z,48.77
2023-03-02T02:53:47.401Z,41.35
2023-03-02T02:56:14.578Z,56.80
2023-03-02T02:58:43.365Z,36.33
2023-03-02T03:01:13.044Z,86.40
2023-03-02T03:03:40.231Z,31.65
2023-03-02T03:06:08.548Z,52.78
2023-03-02T03:08:45.613Z,56.58
2023-03-02T03:11:15.355Z,33.80
2023-03-02T03:13:42.948Z,30.10
2023-03-02T03:16:10.761Z,44.70
2023-03-02T03:18:37.912Z,101.43
2023-03-02T03:21:05.181Z,110.90
2023-03-02T03:23:32.328Z,28.80
2023-03-02T03:25:59.460Z,41.63
2023-03-02T03:28:27.757Z,43.50
2023-03-02T03:30:55.010Z,83.85
2023-03-02T03:33:22.325Z,39.17
2023-03-02T03:35:49.494Z,77.30
2023-03-02T03:38:16.657Z,30.90
2023-03-02T03:40:43.810Z,43.20
2023-03-02T03:43:13.684Z,48.10
2023-03-02T03:45:40.843Z,35.10
2023-03-02T03:48:08.101Z,35.45
2023-03-02T03:50:35.561Z,65.22
2023-03-02T03:53:03.918Z,33.40
2023-03-02T03:55:31.661Z,22.67
2023-03-02T03:57:58.793Z,23.75
2023-03-02T04:00:26.006Z,57.88
2023-03-02T04:02:53.263Z,21.30
2023-03-02T04:05:20.467Z,32.35
2023-03-02T04:07:47.604Z,41.28
2023-03-02T04:10:14.790Z,33.13
2023-03-02T04:12:42.046Z,34.40
2023-03-02T04:15:09.625Z,59.13
2023-03-02T04:17:36.795Z,77.28
2023-03-02T04:20:07.665Z,57.38
2023-03-02T04:22:34.860Z,28.80
2023-03-02T04:25:02.058Z,28.50
2023-03-02T04:27:29.280Z,28.80
2023-03-02T04:29:56.432Z,38.83
2023-03-02T04:32:23.650Z,46.53
2023-03-02T04:34:50.904Z,43.22
2023-03-02T04:37:18.092Z,19.00
2023-03-02T04:39:50.023Z,19.23
2023-03-02T04:42:17.311Z,40.38
2023-03-02T04:44:44.510Z,25.20
2023-03-02T04:47:11.736Z,25.20
2023-03-02T04:49:38.995Z,51.45
2023-03-02T04:52:06.235Z,41.15
2023-03-02T04:54:34.062Z,27.08
2023-03-02T04:57:01.212Z,34.88
2023-03-02T04:59:28.531Z,37.15
2023-03-02T05:01:56.177Z,21.77
2023-03-02T05:04:23.489Z,34.92
2023-03-02T05:06:51.373Z,25.45
2023-03-02T05:09:18.675Z,19.65
2023-03-02T05:11:45.879Z,44.10
2023-03-02T05:14:13.132Z,25.92
2023-03-02T05:16:41.229Z,36.17
2023-03-02T05:19:09.169Z,27.67
2023-03-02T05:21:36.428Z,21.90
2023-03-02T05:24:04.066Z,27.73
2023-03-02T05:26:31.708Z,33.17
2023-03-02T05:28:59.146Z,16.85
2023-03-02T05:31:37.031Z,18.85
2023-03-02T05:34:04.943Z,27.92
2023-03-02T05:36:32.388Z,18.08
2023-03-02T05:38:59.717Z,29.17
2023-03-02T05:41:27.082Z,18.27
2023-03-02T05:43:54.250Z,19.95
2023-03-02T05:46:22.153Z,17.15
2023-03-02T05:48:49.441Z,26.25
2023-03-02T05:51:16.587Z,22.73
2023-03-02T05:53:43.827Z,29.73
2023-03-02T05:56:11.031Z,23.13
2023-03-02T05:58:38.218Z,28.00
2023-03-02T06:01:08.340Z,22.95
2023-03-02T06:03:35.499Z,23.30
2023-03-02T06:06:02.656Z,20.77
2023-03-02T06:08:29.825Z,20.65
2023-03-02T06:10:57.226Z,19.15
2023-03-02T06:13:24.401Z,23.02
2023-03-02T06:15:51.552Z,18.98
2023-03-02T06:18:18.957Z,20.02
2023-03-02T06:20:46.200Z,20.73
2023-03-02T06:23:13.936Z,21.05
2023-03-02T06:25:43.712Z,22.30
2023-03-02T06:28:10.964Z,23.63
2023-03-02T06:30:38.116Z,22.67
2023-03-02T06:33:05.291Z,19.88
2023-03-02T06:35:33.493Z,23.60
2023-03-02T06:38:00.736Z,21.10
2023-03-02T06:40:27.913Z,22.50
2023-03-02T06:42:55.059Z,22.17
2023-03-02T06:45:22.294Z,20.92
2023-03-02T06:47:49.489Z,19.63
2023-03-02T06:50:16.731Z,18.30
2023-03-02T06:52:43.873Z,24.35
2023-03-02T06:55:11.249Z,23.38
2023-03-02T06:57:38.426Z,22.42
2023-03-02T07:00:14.059Z,17.35
2023-03-02T07:02:41.212Z,21.95
2023-03-02T07:05:08.571Z,22.88
2023-03-02T07:07:35.751Z,18.25
2023-03-02T07:10:03.001Z,21.45
2023-03-02T07:12:30.249Z,22.20
2023-03-02T07:14:57.470Z,20.77
2023-03-02T07:17:24.662Z,24.90
2023-03-02T07:19:51.827Z,20.10
2023-03-02T07:22:18.973Z,17.55
2023-03-02T07:24:46.143Z,19.73
2023-03-02T07:27:13.285Z,23.67
2023-03-02T07:29:40.426Z,18.63
2023-03-02T07:32:07.682Z,18.40
2023-03-02T07:34:34.880Z,23.00
2023-03-02T07:37:02.057Z,19.30
2023-03-02T07:39:29.254Z,17.58
2023-03-02T07:42:00.123Z,18.45
2023-03-02T07:44:27.452Z,19.42
2023-03-02T07:46:54.707Z,17.10
2023-03-02T07:49:21.909Z,23.73
2023-03-02T07:51:49.061Z,48.25
2023-03-02T07:54:16.230Z,25.65
2023-03-02T07:56:43.395Z,19.05
2023-03-02T07:59:11.894Z,19.77
2023-03-02T08:01:39.128Z,22.42
2023-03-02T08:04:06.349Z,23.92
2023-03-02T08:06:33.533Z,35.58
2023-03-02T08:09:02.269Z,38.27
2023-03-02T08:11:29.480Z,17.00
2023-03-02T08:13:56.654Z,62.92
2023-03-02T08:16:26.369Z,23.67
2023-03-02T08:18:53.678Z,29.70
2023-03-02T08:21:21.892Z,42.38
2023-03-02T08:23:49.137Z,26.88
2023-03-02T08:26:17.582Z,24.88
2023-03-02T08:28:44.898Z,21.30
2023-03-02T08:31:12.158Z,19.83
2023-03-02T08:33:39.476Z,46.58
2023-03-02T08:36:06.763Z,27.90
2023-03-02T08:38:33.966Z,23.65
2023-03-02T08:41:03.555Z,36.25
2023-03-02T08:43:30.717Z,40.85
2023-03-02T08:45:58.097Z,24.77
2023-03-02T08:48:25.491Z,20.95
2023-03-02T08:50:56.179Z,19.02
2023-03-02T08:53:23.542Z,24.90
2023-03-02T08:55:50.873Z,18.38
2023-03-02T08:58:18.038Z,31.48
2023-03-02T09:00:45.277Z,15.40
2023-03-02T09:03:12.529Z,18.50
2023-03-02T09:05:39.732Z,16.55
2023-03-02T09:08:06.929Z,33.35
2023-03-02T09:10:34.107Z,19.97
2023-03-02T09:13:01.327Z,37.95
2023-03-02T09:15:28.518Z,18.30
2023-03-02T09:17:55.795Z,14.98
2023-03-02T09:20:22.968Z,16.92
2023-03-02T09:22:50.919Z,14.18
2023-03-02T09:25:18.809Z,21.00
2023-03-02T09:27:46.607Z,24.05
2023-03-02T09:30:14.105Z,15.68
2023-03-02T09:32:41.617Z,16.60
2023-03-02T09:35:09.003Z,14.70
2023-03-02T09:37:38.784Z,22.07
2023-03-02T09:40:06.859Z,25.98
2023-03-02T09:42:43.944Z,17.70
2023-03-02T09:45:30.576Z,19.33
2023-03-02T09:48:26.828Z,24.80
2023-03-02T09:51:12.713Z,15.30
2023-03-02T09:53:58.612Z,25.60
2023-03-02T09:56:25.833Z,17.08
2023-03-02T09:58:54.906Z,18.75
2023-03-02T10:01:25.928Z,18.02
2023-03-02T10:04:01.480Z,11.50
2023-03-02T10:06:30.006Z,11.77
2023-03-02T10:08:57.493Z,14.60
2023-03-02T10:11:32.305Z,15.32
2023-03-02T10:14:01.652Z,23.63
2023-03-02T10:16:35.441Z,17.50
2023-03-02T10:19:18.808Z,14.63
2023-03-02T10:22:08.320Z,14.80
2023-03-02T10:24:38.594Z,12.73
2023-03-02T10:27:14.810Z,16.05
2023-03-02T10:29:41.976Z,13.02
2023-03-02T10:32:18.065Z,12.52
2023-03-02T10:34:45.324Z,11.07
2023-03-02T10:37:12.890Z,11.93
2023-03-02T10:39:40.045Z,12.70
2023-03-02T10:42:07.786Z,11.98
2023-03-02T10:44:39.152Z,13.27
2023-03-02T10:47:07.509Z,10.57
2023-03-02T10:49:35.462Z,10.35
2023-03-02T10:52:05.725Z,10.43
2023-03-02T10:54:33.768Z,10.45
2023-03-02T10:57:01.711Z,11.65
2023-03-02T10:59:41.373Z,12.23
2023-03-02T11:02:15.978Z,12.10
2023-03-02T11:04:43.237Z,14.95
2023-03-02T11:07:13.008Z,11.55
2023-03-02T11:09:40.229Z,12.65
2023-03-02T11:12:12.344Z,11.32
2023-03-02T11:14:39.549Z,12.15
2023-03-02T11:17:42.021Z,10.97
2023-03-02T11:20:11.064Z,12.32
2023-03-02T11:22:39.646Z,11.85
2023-03-02T11:25:07.529Z,14.35
2023-03-02T11:27:35.786Z,12.03
2023-03-02T11:30:19.823Z,12.37
2023-03-02T11:32:53.171Z,11.40
2023-03-02T11:35:23.261Z,10.35
2023-03-02T11:37:54.820Z,12.20
2023-03-02T11:40:32.280Z,12.57
2023-03-02T11:43:00.106Z,10.30
2023-03-02T11:45:28.274Z,10.73
2023-03-02T11:48:02.373Z,14.75
2023-03-02T11:50:30.357Z,13.93
2023-03-02T11:53:01.335Z,12.52
2023-03-02T11:55:28.924Z,10.93
2023-03-02T11:57:56.711Z,12.55
2023-03-02T12:00:30.030Z,10.75
2023-03-02T12:03:04.636Z,16.38
2023-03-02T12:05:35.724Z,12.87
2023-03-02T12:08:04.087Z,14.13
2023-03-02T12:10:32.878Z,11.55
2023-03-02T12:13:17.131Z,12.80
2023-03-02T12:15:47.700Z,9.77
2023-03-02T12:18:24.825Z,11.50
2023-03-02T12:21:01.299Z,11.20
2023-03-02T12:23:28.468Z,11.13
2023-03-02T12:26:09.145Z,10.68
2023-03-02T12:28:39.810Z,10.65
2023-03-02T12:31:10.079Z,10.68
2023-03-02T12:33:47.484Z,11.10
2023-03-02T12:36:16.097Z,10.57
2023-03-02T12:38:47.865Z,10.03
2023-03-02T12:41:35.740Z,11.73
2023-03-02T12:44:06.935Z,15.95
2023-03-02T12:46:35.121Z,14.45
2023-03-02T12:49:14.502Z,13.70
2023-03-02T12:51:44.955Z,15.25
2023-03-02T12:54:19.316Z,13.10
2023-03-02T12:56:46.526Z,12.68
2023-03-02T12:59:23.762Z,15.60
2023-03-02T13:01:50.990Z,10.95
2023-03-02T13:04:25.032Z,12.15
2023-03-02T13:06:52.404Z,36.53
2023-03-02T13:09:20.387Z,16.85
2023-03-02T13:11:48.820Z,31.45
2023-03-02T13:14:22.261Z,19.90
2023-03-02T13:16:56.024Z,15.80
2023-03-02T13:19:23.268Z,14.95
2023-03-02T13:21:50.509Z,13.70
2023-03-02T13:24:40.758Z,12.45
2023-03-02T13:27:08.460Z,11.77
2023-03-02T13:29:35.930Z,23.63
2023-03-02T13:32:22.777Z,14.18
2023-03-02T13:34:52.889Z,11.45
2023-03-02T13:37:21.072Z,11.35
2023-03-02T13:39:58.683Z,12.15
2023-03-02T13:42:26.925Z,12.48
2023-03-02T13:44:54.082Z,16.95
2023-03-02T13:47:24.847Z,12.55
2023-03-02T13:49:52.128Z,14.80
2023-03-02T13:52:19.819Z,12.23
2023-03-02T13:54:47.253Z,19.67
2023-03-02T13:57:16.098Z,13.00
2023-03-02T13:59:43.287Z,13.60
2023-03-02T14:02:21.743Z,15.63
2023-03-02T14:04:49.114Z,13.18
2023-03-02T14:07:17.580Z,14.07
2023-03-02T14:09:44.844Z,15.20
2023-03-02T14:12:28.164Z,11.32
2023-03-02T14:14:55.969Z,11.88
2023-03-02T14:17:23.879Z,15.15
2023-03-02T14:19:53.151Z,12.48
2023-03-02T14:22:20.834Z,16.75
2023-03-02T14:24:48.183Z,14.07
2023-03-02T14:27:16.103Z,12.05
2023-03-02T14:29:43.751Z,12.25
2023-03-02T14:32:11.386Z,15.07
2023-03-02T14:34:38.600Z,13.85
2023-03-02T14:37:07.473Z,13.25
2023-03-02T14:39:38.230Z,16.95
2023-03-02T14:42:05.805Z,15.30
2023-03-02T14:44:33.111Z,15.10
2023-03-02T14:47:00.331Z,17.20
2023-03-02T14:49:27.632Z,15.73
2023-03-02T14:52:05.979Z,17.50
2023-03-02T14:54:36.993Z,13.97
2023-03-02T14:57:06.254Z,16.80
2023-03-02T14:59:33.448Z,16.13
2023-03-02T15:02:10.272Z,14.35
2023-03-02T15:04:42.999Z,13.77
2023-03-02T15:07:12.316Z,13.80
2023-03-02T15:09:40.033Z,13.10
2023-03-02T15:12:07.681Z,15.80
2023-03-02T15:14:34.848Z,11.32
2023-03-02T15:17:02.061Z,12.48
2023-03-02T15:19:29.270Z,13.45
2023-03-02T15:21:57.068Z,13.57
2023-03-02T15:24:24.349Z,14.13
2023-03-02T15:26:51.516Z,11.88
2023-03-02T15:29:18.996Z,12.30
2023-03-02T15:31:46.283Z,11.80
2023-03-02T15:34:13.644Z,10.85
2023-03-02T15:36:40.967Z,12.68
2023-03-02T15:39:12.016Z,12.88
2023-03-02T15:41:39.293Z,14.18
2023-03-02T15:44:06.523Z,14.73
2023-03-02T15:46:33.755Z,13.93
2023-03-02T15:49:00.932Z,15.30
2023-03-02T15:51:28.097Z,13.60
2023-03-02T15:53:55.288Z,13.02
2023-03-02T15:56:23.843Z,14.05
2023-03-02T15:58:53.605Z,13.68
2023-03-02T16:01:20.988Z,14.40
2023-03-02T16:03:48.219Z,12.27
2023-03-02T16:06:17.635Z,20.27
2023-03-02T16:08:44.832Z,16.60
2023-03-02T16:11:12.146Z,14.95
2023-03-02T16:13:39.350Z,14.75
2023-03-02T16:16:06.821Z,15.48
2023-03-02T16:18:34.054Z,13.98
2023-03-02T16:21:02.712Z,66.78
2023-03-02T16:23:29.856Z,18.45
2023-03-02T16:26:06.374Z,15.35
2023-03-02T16:28:33.519Z,16.40
2023-03-02T16:31:04.681Z,24.95
2023-03-02T16:33:31.953Z,26.90
2023-03-02T16:35:59.106Z,35.60
2023-03-02T16:38:26.303Z,28.35
2023-03-02T16:40:54.604Z,22.75
2023-03-02T16:43:24.465Z,17.73
2023-03-02T16:45:52.165Z,20.07
2023-03-02T16:48:19.380Z,37.20
2023-03-02T16:50:46.655Z,47.58
2023-03-02T16:53:13.839Z,35.05
2023-03-02T16:55:41.086Z,28.38
2023-03-02T16:58:08.223Z,19.75
2023-03-02T17:00:35.871Z,21.63
2023-03-02T17:03:03.145Z,98.40
2023-03-02T17:05:30.279Z,68.85
2023-03-02T17:07:58.873Z,43.72
2023-03-02T17:10:26.095Z,24.77
2023-03-02T17:12:53.223Z,27.85
2023-03-02T17:15:20.375Z,54.85
2023-03-02T17:17:47.525Z,78.95
2023-03-02T17:20:14.852Z,34.80
2023-03-02T17:22:42.015Z,21.65
2023-03-02T17:25:10.969Z,22.13
2023-03-02T17:27:38.284Z,19.93
2023-03-02T17:30:05.932Z,22.67
2023-03-02T17:32:33.147Z,20.70
2023-03-02T17:35:01.432Z,25.85
2023-03-02T17:37:30.443Z,40.05
2023-03-02T17:39:57.934Z,39.47
2023-03-02T17:42:25.198Z,49.20
2023-03-02T17:55:27.743Z,31.77
2023-03-02T17:57:55.008Z,34.30
2023-03-02T18:00:22.617Z,24.35
2023-03-02T18:02:49.913Z,48.72
2023-03-02T18:05:17.229Z,46.25
2023-03-02T18:07:44.484Z,36.58
2023-03-02T18:10:12.086Z,26.17
2023-03-02T18:12:39.751Z,27.63
2023-03-02T18:15:07.877Z,29.97
2023-03-02T18:17:35.209Z,50.10
2023-03-02T18:20:02.668Z,33.28
2023-03-02T18:22:30.042Z,51.08
2023-03-02T18:24:57.481Z,32.55
2023-03-02T18:27:24.936Z,29.15
2023-03-02T18:29:52.188Z,28.17
2023-03-02T18:32:19.457Z,27.50
2023-03-02T18:34:46.715Z,29.55
2023-03-02T18:37:13.971Z,27.65
2023-03-02T18:39:41.177Z,28.70
2023-03-02T18:42:08.505Z,26.70
2023-03-02T18:44:35.889Z,28.35
2023-03-02T18:47:03.137Z,27.30
2023-03-02T18:49:30.400Z,29.15
2023-03-02T18:51:58.627Z,40.35
2023-03-02T18:54:25.896Z,37.92
2023-03-02T18:56:53.172Z,46.35
2023-03-02T18:59:20.454Z,43.05
2023-03-02T19:01:47.788Z,30.05
2023-03-02T19:04:15.299Z,32.10
2023-03-02T19:06:42.855Z,33.78
2023-03-02T19:09:10.705Z,30.50
2023-03-02T19:11:38.056Z,31.40
2023-03-02T19:14:05.307Z,30.95
2023-03-02T19:16:32.794Z,33.45
2023-03-02T19:19:00.201Z,41.80
2023-03-02T19:21:27.409Z,37.42
2023-03-02T19:23:54.710Z,31.75
2023-03-02T19:26:21.938Z,30.05
2023-03-02T19:28:49.336Z,34.47
2023-03-02T19:31:16.790Z,37.95
2023-03-02T19:33:45.274Z,33.40
2023-03-02T19:36:12.758Z,38.67
2023-03-02T19:38:44.303Z,34.63
2023-03-02T19:41:12.383Z,30.17
2023-03-02T19:43:41.605Z,30.95
2023-03-02T19:46:10.807Z,33.28
2023-03-02T19:48:38.194Z,34.67
2023-03-02T19:51:05.972Z,33.00
2023-03-02T19:53:33.587Z,35.83
2023-03-02T19:56:12.735Z,39.92
2023-03-02T19:58:47.134Z,36.50
2023-03-02T20:01:21.944Z,39.88
2023-03-02T20:03:51.571Z,37.75
2023-03-02T20:06:18.918Z,34.80
2023-03-02T20:08:48.071Z,33.50
2023-03-02T20:11:15.659Z,31.92
2023-03-02T20:13:42.932Z,37.57
2023-03-02T20:16:11.116Z,34.33
2023-03-02T20:18:39.440Z,30.63
2023-03-02T20:21:06.899Z,33.33
2023-03-02T20:23:34.515Z,31.23
2023-03-02T20:26:02.013Z,27.95
2023-03-02T20:28:29.295Z,26.67
2023-03-02T20:30:57.761Z,28.00
2023-03-02T20:33:26.893Z,27.88
2023-03-02T20:35:54.257Z,26.53
2023-03-02T20:38:29.458Z,26.27
2023-03-02T20:40:56.759Z,28.35
2023-03-02T20:43:24.028Z,30.27
2023-03-02T20:45:51.312Z,29.83
2023-03-02T20:48:18.588Z,30.60
2023-03-02T20:50:45.779Z,32.13
2023-03-02T20:53:13.712Z,31.95
2023-03-02T20:55:41.012Z,28.42
2023-03-02T20:58:08.680Z,30.17
2023-03-02T21:00:36.030Z,28.30
2023-03-02T21:03:03.400Z,31.15
2023-03-02T21:05:30.804Z,31.90
2023-03-02T21:07:58.037Z,31.25
2023-03-02T21:10:26.927Z,28.30
2023-03-02T21:12:54.308Z,32.08
2023-03-02T21:15:25.962Z,28.92
2023-03-02T21:17:54.604Z,32.20
2023-03-02T21:20:25.740Z,32.38
2023-03-02T21:22:53.012Z,32.10
2023-03-02T21:25:20.243Z,31.45
2023-03-02T21:27:47.512Z,31.75
2023-03-02T21:30:19.949Z,30.73
2023-03-02T21:32:47.782Z,35.22
2023-03-02T21:35:15.457Z,34.05
2023-03-02T21:37:43.175Z,35.45
2023-03-02T21:40:11.370Z,37.60
2023-03-02T21:42:38.652Z,33.57
2023-03-02T21:45:07.666Z,33.30
2023-03-02T21:47:34.971Z,31.02
2023-03-02T21:50:02.226Z,32.93
2023-03-02T21:52:29.430Z,37.03
2023-03-02T21:54:56.676Z,37.97
2023-03-02T21:57:23.925Z,39.00
2023-03-02T21:59:54.695Z,53.00
2023-03-02T22:02:22.107Z,39.35
2023-03-02T22:04:49.431Z,33.05
2023-03-02T22:07:16.694Z,39.55
2023-03-02T22:09:43.952Z,31.27
2023-03-02T22:12:14.535Z,36.00
2023-03-02T22:14:41.797Z,47.45
2023-03-02T22:17:35.566Z,36.90
2023-03-02T22:20:03.025Z,103.47
2023-03-02T22:22:30.538Z,47.05
2023-03-02T22:24:57.800Z,55.53
2023-03-02T22:27:25.815Z,61.20
2023-03-02T22:29:54.640Z,40.97
2023-03-02T22:32:23.127Z,44.70
2023-03-02T22:34:51.482Z,34.95
2023-03-02T22:37:19.743Z,44.15
2023-03-02T22:39:47.358Z,91.70
2023-03-02T22:42:16.016Z,32.10
2023-03-02T22:44:43.569Z,59.65
2023-03-02T22:47:18.053Z,49.63
2023-03-02T22:49:45.764Z,60.53
2023-03-02T22:52:14.081Z,58.00
2023-03-02T22:54:41.323Z,56.50
2023-03-02T22:57:23.659Z,66.22
2023-03-02T22:59:50.869Z,28.90
2023-03-02T23:02:18.723Z,62.72
2023-03-02T23:04:46.088Z,77.25
2023-03-02T23:07:15.250Z,48.30
2023-03-02T23:09:42.537Z,28.17
2023-03-02T23:12:16.968Z,40.00
2023-03-02T23:14:50.496Z,61.60
2023-03-02T23:17:39.494Z,39.45
2023-03-02T23:20:07.595Z,36.38
2023-03-02T23:22:34.843Z,30.15
2023-03-02T23:25:02.158Z,50.13
2023-03-02T23:27:29.372Z,40.53
2023-03-02T23:29:56.725Z,37.42
2023-03-02T23:32:24.108Z,39.65
2023-03-02T23:34:51.403Z,41.57
2023-03-02T23:37:18.672Z,58.67
2023-03-02T23:39:46.262Z,67.93
2023-03-02T23:42:13.607Z,68.32
2023-03-02T23:44:40.883Z,84.53
2023-03-02T23:47:08.138Z,58.13
2023-03-02T23:49:35.386Z,64.10
2023-03-02T23:52:03.598Z,86.25
2023-03-02T23:54:30.807Z,48.70
2023-03-02T23:56:58.078Z,49.08
2023-03-02T23:59:25.389Z,122.32
